Time;durP1;ratioP1;P1;durP2;ratioP2;P2;SDS_P1;SDS_P2;PMS_P1;PMS_P2;Temp;Humidity;BMP_temperature;BMP_pressure;BME280_temperature;BME280_humidity;BME280_pressure;Samples;Min_cycle;Max_cycle;Signal;HPM_P1;HPM_P2
2023/09/28 00:01:55;;;;;;;15.93;6.63;;;;;;;-141.97;61.48;47524.84;5010324;28;20618;-84
2023/09/28 00:04:39;;;;;;;12.50;6.37;;;;;;;-141.97;61.73;47547.91;5010495;28;20241;-85
2023/09/28 00:07:05;;;;;;;13.53;6.10;;;;;;;-141.97;61.85;47551.75;5010780;28;20554;-86
2023/09/28 00:09:49;;;;;;;9.73;6.23;;;;;;;-141.97;61.57;47507.53;5012217;28;20167;-86
2023/09/28 00:12:14;;;;;;;13.50;6.77;;;;;;;-141.97;61.48;47536.38;5020630;28;20170;-85
2023/09/28 00:14:40;;;;;;;13.03;7.00;;;;;;;-141.97;61.95;47486.41;5025078;28;20244;-85
2023/09/28 00:17:08;;;;;;;13.10;6.50;;;;;;;-141.97;61.57;47669.00;5032391;28;20238;-85
2023/09/28 00:19:34;;;;;;;11.00;6.60;;;;;;;-141.97;61.55;47580.59;5023683;28;20273;-86
2023/09/28 00:21:59;;;;;;;14.10;6.77;;;;;;;-141.97;61.88;47524.84;5015174;28;20671;-84
2023/09/28 00:24:25;;;;;;;10.60;6.47;;;;;;;-141.97;62.98;47419.13;5011398;28;20198;-84
2023/09/28 00:26:51;;;;;;;12.30;6.63;;;;;;;-141.97;63.20;47503.69;5009345;28;20201;-84
2023/09/28 00:29:18;;;;;;;12.53;6.67;;;;;;;-141.97;64.18;47457.56;5011126;28;20201;-86
2023/09/28 00:37:31;;;;;;;15.13;7.10;;;;;;;-141.97;66.56;47686.31;5011226;28;20557;-85
2023/09/28 00:40:27;;;;;;;15.43;7.27;;;;;;;-141.97;66.80;47584.44;5010894;28;20679;-86
2023/09/28 00:43:12;;;;;;;13.07;7.70;;;;;;;-141.97;66.99;47569.06;5009584;28;20290;-84
2023/09/28 00:45:38;;;;;;;17.77;7.87;;;;;;;-141.97;68.10;47511.38;5010986;28;20167;-85
2023/09/28 00:48:06;;;;;;;15.47;7.93;;;;;;;-141.97;67.01;47569.06;5010127;28;21085;-85
2023/09/28 00:50:50;;;;;;;14.67;7.77;;;;;;;-141.97;67.89;47588.28;5009440;28;20181;-85
2023/09/28 00:53:16;;;;;;;13.00;7.20;;;;;;;-141.97;68.59;47515.22;5010663;28;20198;-84
2023/09/28 00:55:43;;;;;;;17.20;8.10;;;;;;;-141.97;68.80;47572.91;5009016;28;20171;-84
2023/09/28 00:58:09;;;;;;;17.53;8.27;;;;;;;-141.97;68.34;47542.16;5025535;28;20175;-85
2023/09/28 01:00:36;;;;;;;15.90;7.60;;;;;;;-141.97;69.00;47496.00;5009543;28;20700;-85
2023/09/28 01:03:21;;;;;;;13.53;7.70;;;;;;;-141.97;68.51;47557.53;5010828;28;20194;-85
2023/09/28 01:06:08;;;;;;;15.23;7.23;;;;;;;-141.97;67.97;47561.38;5008643;28;20626;-84
2023/09/28 01:08:33;;;;;;;15.27;7.20;;;;;;;-141.97;67.69;47605.56;5009692;28;20171;-84
2023/09/28 01:10:58;;;;;;;10.33;6.47;;;;;;;-141.97;66.71;47546.00;5009336;28;20237;-84
2023/09/28 01:16:26;;;;;;;16.03;7.00;;;;;;;-141.97;66.54;47695.91;5011505;28;20197;-83
2023/09/28 01:19:11;;;;;;;14.03;7.37;;;;;;;-141.97;66.60;47536.38;5024331;28;20206;-83
2023/09/28 01:24:58;;;;;;;16.70;7.57;;;;;;;-141.97;67.32;47672.84;5016735;28;20727;-84
2023/09/28 01:27:23;;;;;;;13.93;7.50;;;;;;;-141.97;67.84;47546.00;5024479;28;20174;-84
2023/09/28 01:29:49;;;;;;;14.17;7.47;;;;;;;-141.97;67.97;47446.03;5017240;28;20171;-84
2023/09/28 01:32:15;;;;;;;16.93;7.97;;;;;;;-141.97;68.10;47565.22;5014397;28;20190;-83
2023/09/28 01:34:40;;;;;;;15.17;8.00;;;;;;;-141.97;68.26;47538.28;5013781;28;20194;-84
2023/09/28 01:37:06;;;;;;;15.30;8.03;;;;;;;-141.97;68.14;47519.06;5013601;28;20346;-84
2023/09/28 01:42:36;;;;;;;15.57;8.60;;;;;;;-141.97;68.02;47711.28;5013257;28;20178;-84
2023/09/28 01:45:03;;;;;;;14.43;7.63;;;;;;;-141.97;67.64;47653.63;5012071;28;20220;-83
2023/09/28 01:47:47;;;;;;;17.40;7.80;;;;;;;-141.97;67.03;47615.19;5011910;28;20175;-84
2023/09/28 01:50:12;;;;;;;15.17;8.00;;;;;;;-141.97;66.22;47578.66;5012393;28;20548;-85
2023/09/28 01:52:38;;;;;;;17.93;8.17;;;;;;;-141.97;65.80;47592.13;5015433;28;20177;-85
2023/09/28 01:55:04;;;;;;;14.37;8.20;;;;;;;-141.97;66.26;47580.59;5023397;28;20175;-82
2023/09/28 01:57:31;;;;;;;15.87;8.50;;;;;;;-141.97;66.69;47540.22;5030196;28;20183;-84
2023/09/28 01:59:57;;;;;;;19.93;8.77;;;;;;;-141.97;66.61;47511.38;5013468;28;20221;-84
2023/09/28 02:02:22;;;;;;;16.90;8.50;;;;;;;-141.97;66.56;47471.03;5014359;28;20174;-84
2023/09/28 02:04:47;;;;;;;17.27;8.10;;;;;;;-141.97;66.83;47482.56;5012102;28;20268;-85
2023/09/28 02:07:13;;;;;;;17.77;8.60;;;;;;;-141.97;66.90;47672.84;5011824;28;20187;-86
2023/09/28 02:09:39;;;;;;;17.73;8.33;;;;;;;-141.97;67.17;47496.00;5013161;28;20177;-85
2023/09/28 02:12:26;;;;;;;17.80;8.43;;;;;;;-141.97;67.46;47559.44;5012480;28;20166;-85
2023/09/28 02:14:52;;;;;;;15.40;8.47;;;;;;;-141.97;68.97;47503.69;5001229;28;20237;-87
2023/09/28 02:17:17;;;;;;;16.53;8.33;;;;;;;-141.97;70.78;47630.56;5012780;28;20214;-86
2023/09/28 02:22:46;;;;;;;13.63;8.37;;;;;;;-141.97;70.67;47536.38;5035227;28;20182;-85
2023/09/28 02:25:18;;;;;;;15.30;8.23;;;;;;;-141.97;70.35;47619.03;5035136;28;20611;-87
2023/09/28 02:27:48;;;;;;;16.37;7.87;;;;;;;-141.97;70.36;47678.63;5021659;28;20230;-84
2023/09/28 02:30:19;;;;;;;14.57;9.00;;;;;;;-141.97;69.80;47499.84;5011118;28;20183;-86
2023/09/28 02:35:30;;;;;;;13.47;8.40;;;;;;;-141.97;70.70;47699.75;5014139;28;20228;-87
2023/09/28 02:37:56;;;;;;;16.20;7.60;;;;;;;-141.97;70.64;47472.94;5013749;28;20562;-87
2023/09/28 02:40:40;;;;;;;15.73;7.53;;;;;;;-141.97;69.88;47590.19;5012778;28;20266;-84
2023/09/28 02:43:05;;;;;;;11.97;7.40;;;;;;;-141.97;69.00;47492.16;5011427;28;20184;-85
2023/09/28 02:45:31;;;;;;;14.37;7.80;;;;;;;-141.97;68.93;47494.09;5013480;28;20623;-85
2023/09/28 02:47:56;;;;;;;15.30;7.43;;;;;;;-141.97;69.01;47718.97;5011751;28;20767;-84
2023/09/28 02:50:22;;;;;;;15.73;7.83;;;;;;;-141.97;68.71;47563.28;5027318;28;20163;-81
2023/09/28 02:52:47;;;;;;;14.70;8.10;;;;;;;-141.97;68.81;47474.88;5013033;28;20217;-84
2023/09/28 02:55:13;;;;;;;15.40;8.13;;;;;;;-141.97;69.66;47569.06;5021727;28;20228;-84
2023/09/28 03:03:09;;;;;;;13.67;7.37;;;;;;;-141.97;68.19;47595.97;5012119;28;20175;-85
2023/09/28 03:05:38;;;;;;;12.67;7.27;;;;;;;-141.97;67.94;47532.53;5012605;28;20665;-84
2023/09/28 03:08:09;;;;;;;15.00;7.30;;;;;;;-141.97;67.74;47595.97;5012153;28;20197;-85
2023/09/28 03:10:38;;;;;;;12.67;6.80;;;;;;;-141.97;66.96;47576.75;5011974;28;20611;-84
2023/09/28 03:13:22;;;;;;;14.20;6.57;;;;;;;-141.97;66.75;47574.81;5011979;28;20227;-84
2023/09/28 03:15:47;;;;;;;12.90;6.27;;;;;;;-141.97;66.91;47730.50;5010170;28;20309;-84
2023/09/28 03:18:13;;;;;;;11.53;6.93;;;;;;;-141.97;66.89;47553.69;5009843;28;20306;-84
2023/09/28 03:20:43;;;;;;;10.30;6.30;;;;;;;-141.97;66.28;47469.09;5010447;28;20186;-84
2023/09/28 03:25:56;;;;;;;15.07;7.87;;;;;;;-141.97;65.21;47536.38;5012065;28;20565;-84
2023/09/28 03:28:22;;;;;;;13.03;6.87;;;;;;;-141.97;65.11;47532.53;5010303;28;20231;-83
2023/09/28 03:30:47;;;;;;;12.77;7.00;;;;;;;-141.97;64.58;47559.44;5010443;28;20178;-84
2023/09/28 03:33:31;;;;;;;16.40;6.93;;;;;;;-141.97;64.39;47540.22;5005722;28;20199;-84
2023/09/28 03:36:15;;;;;;;18.63;7.50;;;;;;;-141.97;64.10;47565.22;5010989;28;20171;-84
2023/09/28 03:38:41;;;;;;;10.03;6.50;;;;;;;-141.97;64.00;47692.06;5011838;28;20265;-83
2023/09/28 03:41:25;;;;;;;13.83;6.97;;;;;;;-141.97;64.05;47572.91;5009853;28;20308;-84
2023/09/28 03:44:10;;;;;;;17.00;8.70;;;;;;;-141.97;64.15;47569.06;5009198;28;20182;-85
2023/09/28 03:46:35;;;;;;;17.53;8.60;;;;;;;-141.97;64.46;47549.84;5010383;28;20660;-87
2023/09/28 03:49:19;;;;;;;20.90;9.13;;;;;;;-141.97;65.15;47540.22;5010516;28;20198;-86
2023/09/28 03:51:45;;;;;;;20.60;8.50;;;;;;;-141.97;65.67;47546.00;5011637;28;20400;-86
2023/09/28 03:54:11;;;;;;;15.37;8.20;;;;;;;-141.97;65.85;47669.00;5010186;28;20277;-86
2023/09/28 03:56:36;;;;;;;15.20;9.70;;;;;;;-141.97;66.97;47455.66;5011259;28;20171;-86
2023/09/28 03:59:02;;;;;;;16.07;9.43;;;;;;;-141.97;67.31;47690.16;5010189;28;20174;-86
2023/09/28 04:01:28;;;;;;;18.30;9.87;;;;;;;-141.97;66.61;47471.03;5009972;28;20730;-86
2023/09/28 04:03:54;;;;;;;21.00;9.07;;;;;;;-141.97;66.39;47461.41;5009827;28;20753;-86
2023/09/28 04:06:20;;;;;;;16.87;9.40;;;;;;;-141.97;66.04;47590.19;5026451;28;20332;-83
2023/09/28 04:08:45;;;;;;;20.17;9.80;;;;;;;-141.97;66.33;47680.53;5011269;28;20188;-83
2023/09/28 04:11:29;;;;;;;16.03;9.37;;;;;;;-141.97;67.49;47544.06;5026118;28;20257;-83
2023/09/28 04:14:13;;;;;;;22.37;9.97;;;;;;;-141.97;67.97;47592.13;5001754;28;20202;-83
2023/09/28 04:16:39;;;;;;;13.90;8.43;;;;;;;-141.97;67.90;47501.78;5015021;28;20637;-87
2023/09/28 04:19:05;;;;;;;16.57;8.70;;;;;;;-141.97;67.45;47572.91;5021357;28;20292;-81
2023/09/28 04:21:49;;;;;;;14.87;8.60;;;;;;;-141.97;67.01;47565.22;5022395;28;20178;-82
2023/09/28 04:24:33;;;;;;;19.03;8.47;;;;;;;-141.97;66.65;47595.97;5009263;28;20174;-82
2023/09/28 04:26:59;;;;;;;21.87;8.70;;;;;;;-141.97;65.53;47584.44;5010178;28;20252;-83
2023/09/28 04:29:25;;;;;;;16.87;9.33;;;;;;;-141.97;65.09;47563.28;5010718;28;20619;-83
2023/09/28 04:32:09;;;;;;;17.83;9.40;;;;;;;-141.97;65.47;47576.75;5032448;28;20171;-82
2023/09/28 04:34:54;;;;;;;22.17;14.07;;;;;;;-141.97;65.50;47486.41;5022991;28;20214;-83
2023/09/28 04:37:39;;;;;;;21.47;10.10;;;;;;;-141.97;64.86;47574.81;5026424;28;20197;-83
2023/09/28 04:40:05;;;;;;;17.17;9.40;;;;;;;-141.97;65.38;47669.00;5025520;28;20175;-83
2023/09/28 04:42:49;;;;;;;16.20;8.83;;;;;;;-141.97;66.28;47580.59;5011016;28;20265;-83
2023/09/28 04:45:15;;;;;;;19.07;8.77;;;;;;;-141.97;66.64;47584.44;5010887;28;20170;-83
2023/09/28 04:47:59;;;;;;;16.87;8.33;;;;;;;-141.97;66.83;47553.69;5010473;28;20661;-83
2023/09/28 04:50:24;;;;;;;18.20;8.60;;;;;;;-141.97;65.95;47538.28;5014922;28;20571;-83
2023/09/28 04:52:50;;;;;;;19.07;9.23;;;;;;;-141.97;65.47;47530.59;5013709;28;20179;-82
2023/09/28 04:55:16;;;;;;;21.13;8.70;;;;;;;-141.97;64.66;47682.47;5010478;28;20174;-83
2023/09/28 04:57:41;;;;;;;18.43;8.97;;;;;;;-141.97;64.70;47488.31;5014465;28;20178;-83
2023/09/28 05:00:10;;;;;;;21.80;8.73;;;;;;;-141.97;65.00;47576.75;5019154;28;20163;-82
2023/09/28 05:02:54;;;;;;;14.47;8.10;;;;;;;-141.97;65.80;47595.97;5015204;28;20642;-82
2023/09/28 05:05:20;;;;;;;16.10;8.57;;;;;;;-141.97;66.02;47605.56;5014837;28;20217;-82
2023/09/28 05:07:46;;;;;;;20.87;8.67;;;;;;;-141.97;65.38;47619.03;5014429;28;20604;-83
2023/09/28 05:10:11;;;;;;;18.53;8.50;;;;;;;-141.97;64.87;47644.00;5014416;28;20658;-82
2023/09/28 05:12:37;;;;;;;23.37;9.10;;;;;;;-141.97;64.53;47594.03;5023293;28;20725;-82
2023/09/28 05:18:06;;;;;;;25.97;10.33;;;;;;;-141.97;63.30;47557.53;5012516;28;20320;-82
2023/09/28 05:20:31;;;;;;;31.73;12.17;;;;;;;-141.97;62.75;47534.44;5014019;28;20170;-83
2023/09/28 05:22:57;;;;;;;36.60;13.23;;;;;;;-141.97;62.46;47544.06;5013920;28;20221;-82
2023/09/28 05:25:22;;;;;;;18.93;8.30;;;;;;;-141.97;62.72;47743.97;5014207;28;20170;-82
2023/09/28 05:27:48;;;;;;;19.73;9.17;;;;;;;-141.97;62.94;47588.28;5012218;28;20297;-83
2023/09/28 05:30:14;;;;;;;24.10;9.50;;;;;;;-141.97;64.05;47449.88;5014156;28;20251;-82
2023/09/28 05:32:39;;;;;;;29.50;16.03;;;;;;;-141.97;63.30;47555.59;5027259;28;20159;-82
2023/09/28 05:35:08;;;;;;;20.03;11.50;;;;;;;-141.97;63.00;47570.97;5025343;28;20163;-83
2023/09/28 05:37:33;;;;;;;13.40;8.20;;;;;;;-141.97;63.18;47572.91;5016262;28;20170;-87
2023/09/28 05:40:00;;;;;;;14.73;7.43;;;;;;;-141.97;63.40;47619.03;5022693;28;20309;-85
2023/09/28 05:42:25;;;;;;;15.13;7.20;;;;;;;-141.97;63.32;47534.44;5012677;28;20166;-85
2023/09/28 05:44:52;;;;;;;16.77;7.63;;;;;;;-141.97;63.16;47569.06;5015450;28;20155;-86
2023/09/28 05:50:07;;;;;;;16.60;7.37;;;;;;;-141.97;62.72;47565.22;5014163;28;20173;-87
2023/09/28 05:52:55;;;;;;;18.83;10.13;;;;;;;-141.97;62.62;47574.81;5010872;28;20181;-85
2023/09/28 05:58:04;;;;;;;16.47;9.50;;;;;;;-141.97;61.17;47630.56;5012596;28;20240;-88
2023/09/28 06:00:29;;;;;;;14.77;7.80;;;;;;;-141.97;60.50;47567.13;5028725;28;20360;-86
2023/09/28 06:02:55;;;;;;;14.83;7.63;;;;;;;-141.97;59.96;47532.53;5013149;28;20250;-86
2023/09/28 06:05:20;;;;;;;20.63;7.23;;;;;;;-141.97;59.43;47561.38;5012252;28;20193;-86
2023/09/28 06:07:46;;;;;;;20.80;11.07;;;;;;;-141.97;59.17;47519.06;5011046;28;20647;-87
2023/09/28 06:10:49;;;;;;;29.60;15.87;;;;;;;-141.97;58.03;47551.75;5013011;28;20750;-89
2023/09/28 06:13:15;;;;;;;34.97;15.57;;;;;;;-141.97;57.43;47503.69;5013548;28;20186;-85
2023/09/28 06:15:40;;;;;;;20.20;11.13;;;;;;;-141.97;57.92;47576.75;5004948;28;20717;-86
2023/09/28 06:20:50;;;;;;;31.20;15.43;;;;;;;-141.97;57.80;47576.75;5015245;28;20228;-85
2023/09/28 06:23:15;;;;;;;34.20;16.50;;;;;;;-141.97;57.82;47584.44;5014317;28;20167;-86
2023/09/28 06:25:41;;;;;;;29.87;16.40;;;;;;;-141.97;57.51;47576.75;5014067;28;20176;-84
2023/09/28 06:28:26;;;;;;;33.23;17.17;;;;;;;-141.97;57.46;47534.44;5014713;28;20163;-84
2023/09/28 06:30:55;;;;;;;22.27;10.47;;;;;;;-141.97;56.91;47542.16;5013784;28;20770;-85
2023/09/28 06:33:39;;;;;;;15.20;7.70;;;;;;;-141.97;58.36;47542.16;5013939;28;20194;-86
2023/09/28 06:36:04;;;;;;;12.20;7.60;;;;;;;-141.97;58.74;47580.59;5015673;28;20174;-85
2023/09/28 06:38:30;;;;;;;21.07;8.60;;;;;;;-141.97;58.03;47570.97;5018411;28;20178;-85
2023/09/28 06:41:14;;;;;;;20.13;7.43;;;;;;;-141.97;58.22;47522.91;5035748;28;20193;-85
2023/09/28 06:43:40;;;;;;;13.37;7.03;;;;;;;-141.97;58.81;47538.28;5035029;28;20229;-78
2023/09/28 06:46:06;;;;;;;13.80;7.20;;;;;;;-141.97;58.59;47669.00;5034837;28;20206;-83
2023/09/28 06:48:51;;;;;;;16.50;7.00;;;;;;;-141.97;57.83;47549.84;5046677;28;20196;-84
2023/09/28 06:51:16;;;;;;;11.53;6.63;;;;;;;-141.97;57.78;47590.19;5034803;28;20299;-86
2023/09/28 06:53:42;;;;;;;12.77;6.50;;;;;;;-141.97;57.58;47505.63;5012948;28;20190;-85
2023/09/28 06:56:07;;;;;;;17.00;7.33;;;;;;;-141.97;57.20;47565.22;5012583;28;20171;-84
2023/09/28 06:58:33;;;;;;;13.03;6.90;;;;;;;-141.97;56.99;47449.88;5012088;28;20221;-85
2023/09/28 07:00:58;;;;;;;13.70;7.60;;;;;;;-141.97;56.77;47536.38;5027127;28;20163;-85
2023/09/28 07:03:25;;;;;;;14.50;7.23;;;;;;;-141.97;56.52;47444.13;5011995;28;20166;-83
2023/09/28 07:05:52;;;;;;;13.17;7.20;;;;;;;-141.97;56.48;47434.50;5012574;28;20232;-84
2023/09/28 07:08:36;;;;;;;13.77;7.00;;;;;;;-141.97;56.24;47538.28;5027559;28;20266;-83
2023/09/28 07:14:04;;;;;;;13.43;6.47;;;;;;;-141.97;53.27;47553.69;5012535;28;20281;-84
2023/09/28 07:19:14;;;;;;;14.13;6.70;;;;;;;-141.97;49.63;47465.25;5011777;28;20186;-84
2023/09/28 07:24:25;;;;;;;11.20;6.20;;;;;;;-141.97;48.61;47547.91;5012035;28;20686;-83
2023/09/28 07:26:51;;;;;;;12.43;6.67;;;;;;;-141.97;48.88;47544.06;5012052;28;20155;-83
2023/09/28 07:32:00;;;;;;;15.07;7.03;;;;;;;-141.97;49.42;47507.53;5003950;28;20193;-84
2023/09/28 07:34:26;;;;;;;15.17;7.00;;;;;;;-141.97;49.32;47459.50;5017615;28;20197;-83
2023/09/28 07:39:35;;;;;;;14.37;6.73;;;;;;;-141.97;48.50;47511.38;5030932;28;20249;-83
2023/09/28 07:42:07;;;;;;;13.57;7.07;;;;;;;-141.97;49.13;47482.56;5031008;28;20216;-84
2023/09/28 07:44:32;;;;;;;15.93;6.77;;;;;;;-141.97;49.57;47522.91;5016341;28;20674;-84
2023/09/28 07:46:58;;;;;;;12.67;6.40;;;;;;;-141.97;48.86;47522.91;5011274;28;20195;-86
2023/09/28 07:49:41;;;;;;;11.90;6.40;;;;;;;-141.97;47.63;47522.91;5011263;28;20162;-82
2023/09/28 07:52:09;;;;;;;13.37;6.50;;;;;;;-141.97;47.37;47546.00;4991652;28;20526;-84
2023/09/28 07:54:36;;;;;;;16.37;7.00;;;;;;;-141.97;47.28;47497.94;5006792;28;20678;-84
2023/09/28 07:57:04;;;;;;;12.63;6.33;;;;;;;-141.97;46.99;47417.22;5011145;28;20178;-84
2023/09/28 07:59:49;;;;;;;12.47;6.77;;;;;;;-141.97;46.97;47549.84;5011271;28;20162;-82
2023/09/28 08:02:14;;;;;;;12.43;6.47;;;;;;;-141.97;47.23;47522.91;5011206;28;20171;-83
2023/09/28 08:04:40;;;;;;;13.47;5.87;;;;;;;-141.97;47.30;47730.50;5010433;28;20743;-83
2023/09/28 08:07:05;;;;;;;10.60;5.87;;;;;;;-141.97;47.75;47522.91;5011406;28;20212;-83
2023/09/28 08:09:50;;;;;;;10.53;5.60;;;;;;;-141.97;47.20;47476.78;5013486;28;20166;-83
2023/09/28 08:12:16;;;;;;;12.10;5.87;;;;;;;-141.97;47.17;47538.28;5028574;28;20206;-84
2023/09/28 08:14:42;;;;;;;15.67;6.20;;;;;;;-141.97;46.91;47536.38;5028280;28;20221;-83
2023/09/28 08:17:09;;;;;;;17.23;6.30;;;;;;;-141.97;46.65;47522.91;5012151;28;20230;-84
2023/09/28 08:19:53;;;;;;;15.23;6.83;;;;;;;-141.97;46.27;47490.25;5011011;28;20169;-84
2023/09/28 08:22:19;;;;;;;11.17;6.43;;;;;;;-141.97;46.73;47478.72;5011262;28;20565;-83
2023/09/28 08:24:44;;;;;;;13.53;6.30;;;;;;;-141.97;45.68;47430.66;5010564;28;20185;-84
2023/09/28 08:27:10;;;;;;;11.03;5.73;;;;;;;-141.97;46.52;47534.44;5019531;28;20174;-84
2023/09/28 08:29:53;;;;;;;13.47;5.80;;;;;;;-141.97;46.17;47522.91;5030725;28;20166;-84
2023/09/28 08:32:37;;;;;;;12.13;6.00;;;;;;;-141.97;46.67;47446.03;5034746;28;20154;-85
2023/09/28 08:35:03;;;;;;;14.10;5.80;;;;;;;-141.97;46.69;47480.63;5016093;28;20206;-83
2023/09/28 08:37:28;;;;;;;12.60;6.30;;;;;;;-141.97;45.88;47526.75;5014754;28;20163;-84
2023/09/28 08:39:54;;;;;;;11.90;6.17;;;;;;;-141.97;45.00;47613.25;5014727;28;20179;-84
2023/09/28 08:42:24;;;;;;;11.20;6.17;;;;;;;-141.97;45.05;47451.81;5014723;28;20167;-84
2023/09/28 08:45:14;;;;;;;12.80;6.50;;;;;;;-141.97;45.67;47532.53;5014674;28;20197;-84
2023/09/28 08:47:52;;;;;;;14.53;6.50;;;;;;;-141.97;45.30;47446.03;5015264;28;20167;-84
2023/09/28 08:53:18;;;;;;;15.00;6.47;;;;;;;-141.97;43.02;47515.22;5027913;28;20221;-85
2023/09/28 08:55:44;;;;;;;12.23;5.97;;;;;;;-141.97;42.37;47496.00;5024134;28;20484;-84
2023/09/28 08:58:10;;;;;;;12.60;5.47;;;;;;;-141.97;41.70;47422.97;5026318;28;20563;-84
2023/09/28 09:00:37;;;;;;;10.03;5.20;;;;;;;-141.97;41.27;47480.63;5021698;28;20194;-84
2023/09/28 09:03:06;;;;;;;10.98;5.28;;;;;;;-141.97;41.20;47469.09;5014273;28;20270;-85
2023/09/28 09:05:51;;;;;;;9.18;5.22;;;;;;;-141.97;40.66;47482.56;4996895;28;20164;-85
2023/09/28 09:08:18;;;;;;;13.95;5.45;;;;;;;-141.97;40.72;47411.44;5014163;28;20164;-83
2023/09/28 09:10:46;;;;;;;9.88;5.35;;;;;;;-141.97;40.69;47492.16;5018432;28;20420;-83
2023/09/28 09:13:19;;;;;;;15.18;5.43;;;;;;;-141.97;39.94;47478.72;5012959;28;20202;-84
2023/09/28 09:15:44;;;;;;;11.70;5.57;;;;;;;-141.97;40.11;47472.94;5028679;28;20171;-84
2023/09/28 09:18:19;;;;;;;9.73;5.25;;;;;;;-141.97;40.00;47338.41;5028291;28;20233;-86
2023/09/28 09:20:46;;;;;;;8.00;4.90;;;;;;;-141.97;39.65;47315.34;5032456;28;20168;-85
2023/09/28 09:23:13;;;;;;;8.35;5.13;;;;;;;-141.97;40.18;47472.94;5028893;28;20165;-86
2023/09/28 09:25:47;;;;;;;9.65;5.40;;;;;;;-141.97;39.96;47428.75;5013470;28;20240;-83
2023/09/28 09:28:26;;;;;;;10.68;5.32;;;;;;;-141.97;40.92;47480.63;5031524;28;20245;-83
2023/09/28 09:30:52;;;;;;;9.38;5.18;;;;;;;-141.97;40.65;47542.16;5033784;28;20168;-84
2023/09/28 09:33:36;;;;;;;9.82;5.55;;;;;;;-141.97;40.26;47444.13;5032678;28;20565;-84
2023/09/28 09:36:02;;;;;;;10.13;5.45;;;;;;;-141.97;40.78;47422.97;5013686;28;20160;-84
2023/09/28 09:41:13;;;;;;;6.75;5.03;;;;;;;-141.97;39.88;47482.56;5013165;28;20168;-84
2023/09/28 09:43:41;;;;;;;9.65;5.20;;;;;;;-141.97;40.10;47446.03;5012636;28;20159;-84
2023/09/28 09:46:08;;;;;;;13.55;5.57;;;;;;;-141.97;39.71;47534.44;5013495;28;20171;-84
2023/09/28 09:48:55;;;;;;;8.40;5.10;;;;;;;-141.97;39.48;47486.41;5028998;28;20176;-84
2023/09/28 09:51:39;;;;;;;9.60;4.95;;;;;;;-141.97;39.07;47649.78;5013050;28;20177;-85
2023/09/28 09:54:23;;;;;;;9.10;5.20;;;;;;;-141.97;38.00;47422.97;5012791;28;20194;-83
2023/09/28 09:59:34;;;;;;;13.70;5.45;;;;;;;-141.97;38.52;47482.56;5017735;28;20244;-84
2023/09/28 10:02:25;;;;;;;10.10;5.63;;;;;;;-141.97;37.90;47417.22;5012301;28;20167;-84
2023/09/28 10:05:13;;;;;;;9.25;5.43;;;;;;;-141.97;37.54;47461.41;5013054;28;20246;-84
2023/09/28 10:07:41;;;;;;;11.00;6.10;;;;;;;-141.97;38.45;47348.03;5013011;28;20602;-85
2023/09/28 10:10:07;;;;;;;10.80;5.40;;;;;;;-141.97;37.92;47669.00;5012997;28;20629;-83
2023/09/28 10:12:51;;;;;;;10.45;5.40;;;;;;;-141.97;37.05;47451.81;5013064;28;20288;-84
2023/09/28 10:15:17;;;;;;;7.78;4.88;;;;;;;-141.97;36.48;47440.28;5012639;28;20255;-84
2023/09/28 10:17:44;;;;;;;9.25;4.70;;;;;;;-141.97;36.43;47436.44;5011487;28;20240;-80
2023/09/28 10:20:13;;;;;;;13.40;5.15;;;;;;;-141.97;37.13;47438.34;5012413;28;20184;-81
2023/09/28 10:26:11;;;;;;;11.80;5.28;;;;;;;-141.97;37.48;47434.50;5012401;28;20594;-81
2023/09/28 10:29:06;;;;;;;8.13;4.97;;;;;;;-141.97;37.50;47415.28;4995922;28;20178;-81
2023/09/28 10:31:41;;;;;;;7.55;5.03;;;;;;;-141.97;36.85;47476.78;5012016;28;20249;-81
2023/09/28 10:34:09;;;;;;;9.90;5.10;;;;;;;-141.97;36.87;47547.91;5006769;28;20210;-82
2023/09/28 10:39:38;;;;;;;11.02;5.10;;;;;;;-141.97;37.13;47436.44;5004672;28;20262;-81
2023/09/28 10:42:23;;;;;;;9.52;5.03;;;;;;;-141.97;37.84;47417.22;5001793;28;20185;-82
2023/09/28 10:45:07;;;;;;;10.57;4.88;;;;;;;-141.97;39.01;47472.94;5003621;28;20167;-80
2023/09/28 10:47:33;;;;;;;10.73;4.93;;;;;;;-141.97;38.38;47430.66;4997277;28;20249;-78
2023/09/28 10:50:00;;;;;;;7.32;5.13;;;;;;;-141.97;38.15;47407.59;5023068;28;20246;-82
2023/09/28 10:52:25;;;;;;;6.32;4.90;;;;;;;-141.97;38.65;47426.81;5026059;28;20186;-82
2023/09/28 10:55:09;;;;;;;7.47;5.10;;;;;;;-141.97;38.93;47438.34;5013629;28;20188;-83
2023/09/28 10:57:53;;;;;;;9.25;4.95;;;;;;;-141.97;38.93;47434.50;5014615;28;20228;-82
2023/09/28 11:00:37;;;;;;;11.57;5.93;;;;;;;-141.97;39.14;47376.84;5031086;28;20162;-81
2023/09/28 11:03:04;;;;;;;9.25;5.28;;;;;;;-141.97;38.26;47440.28;5032192;28;20188;-82
2023/09/28 11:05:30;;;;;;;9.07;5.03;;;;;;;-141.97;37.34;47638.25;5019498;28;20189;-82
2023/09/28 11:07:59;;;;;;;7.65;5.07;;;;;;;-141.97;36.88;47409.53;5021031;28;20177;-82
2023/09/28 11:10:24;;;;;;;9.50;5.18;;;;;;;-141.97;37.17;47449.88;5012232;28;20260;-82
2023/09/28 11:18:37;;;;;;;9.25;5.28;;;;;;;-141.97;37.50;47628.63;5000806;28;20231;-81
2023/09/28 11:21:21;;;;;;;8.02;5.20;;;;;;;-141.97;37.18;47430.66;5000959;28;20200;-82
2023/09/28 11:24:05;;;;;;;18.67;5.85;;;;;;;-141.97;37.75;47403.75;4992180;28;20172;-82
2023/09/28 11:29:15;;;;;;;10.05;5.30;;;;;;;-141.97;37.04;47359.56;5026199;28;20189;-82
2023/09/28 11:32:08;;;;;;;8.20;5.32;;;;;;;-141.97;36.93;47403.75;5017578;28;20178;-82
2023/09/28 11:34:38;;;;;;;9.57;5.25;;;;;;;-141.97;37.40;47457.56;5010631;28;20187;-81
2023/09/28 11:37:24;;;;;;;8.18;5.25;;;;;;;-141.97;37.79;47430.66;5012764;28;20192;-82
2023/09/28 11:40:09;;;;;;;10.02;5.05;;;;;;;-141.97;37.94;47426.81;5011680;28;20208;-82
2023/09/28 11:42:56;;;;;;;9.73;5.90;;;;;;;-141.97;38.31;47407.59;5011161;28;20304;-82
2023/09/28 11:45:29;;;;;;;10.85;6.47;;;;;;;-141.97;37.60;47394.16;5011649;28;20189;-83
2023/09/28 11:47:54;;;;;;;7.82;5.57;;;;;;;-141.97;36.99;47436.44;5011800;28;20166;-82
2023/09/28 11:50:23;;;;;;;12.00;6.32;;;;;;;-141.97;36.32;47421.06;5012098;28;20235;-82
2023/09/28 11:53:09;;;;;;;11.38;6.05;;;;;;;-141.97;35.99;47405.69;5011273;28;20170;-82
2023/09/28 11:55:36;;;;;;;8.05;5.18;;;;;;;-141.97;36.01;47405.69;5011534;28;20506;-83
2023/09/28 11:58:02;;;;;;;12.73;5.40;;;;;;;-141.97;35.92;47421.06;5011408;28;20576;-83
2023/09/28 12:00:28;;;;;;;10.95;5.65;;;;;;;-141.97;35.61;47357.63;5013109;28;20685;-83
2023/09/28 12:02:54;;;;;;;13.25;5.25;;;;;;;-141.97;34.82;47603.66;5002139;28;20232;-83
2023/09/28 12:05:21;;;;;;;9.10;5.30;;;;;;;-141.97;35.23;47597.88;5012329;28;20551;-83
2023/09/28 12:13:32;;;;;;;9.70;5.25;;;;;;;-141.97;33.96;47449.88;5014738;28;20232;-83
2023/09/28 12:16:17;;;;;;;12.10;4.90;;;;;;;-141.97;33.82;47349.94;5012511;28;20190;-82
2023/09/28 12:19:00;;;;;;;9.27;5.10;;;;;;;-141.97;33.96;47340.34;5014592;28;20270;-84
2023/09/28 12:21:45;;;;;;;10.52;5.40;;;;;;;-141.97;33.64;47363.41;5015626;28;20717;-84
2023/09/28 12:29:59;;;;;;;10.50;5.60;;;;;;;-141.97;35.04;47342.25;5021094;28;20238;-82
2023/09/28 12:35:28;;;;;;;11.20;5.88;;;;;;;-141.97;37.01;47407.59;5011804;28;20222;-83
2023/09/28 12:37:55;;;;;;;9.65;5.53;;;;;;;-141.97;37.05;47497.94;5011692;28;20289;-81
2023/09/28 12:40:20;;;;;;;14.68;6.10;;;;;;;-141.97;38.07;47422.97;5011511;28;20630;-82
2023/09/28 12:45:34;;;;;;;13.40;6.20;;;;;;;-141.97;38.05;47426.81;5014986;28;20217;-81
2023/09/28 12:48:03;;;;;;;10.45;5.47;;;;;;;-141.97;38.47;47553.69;5014503;28;20241;-84
2023/09/28 12:50:29;;;;;;;12.20;6.35;;;;;;;-141.97;38.24;47584.44;5017200;28;20543;-81
2023/09/28 12:52:56;;;;;;;16.65;6.15;;;;;;;-141.97;38.16;47409.53;5010843;28;20179;-79
2023/09/28 12:55:40;;;;;;;11.90;5.97;;;;;;;-141.97;37.97;47419.13;5003448;28;20222;-80
2023/09/28 12:58:24;;;;;;;8.40;5.47;;;;;;;-141.97;37.44;47315.34;4995932;28;20229;-81
2023/09/28 13:01:07;;;;;;;13.20;5.90;;;;;;;-141.97;37.24;47386.47;4989478;28;20199;-79
2023/09/28 13:03:32;;;;;;;8.98;5.80;;;;;;;-141.97;37.37;47417.22;5000601;28;20174;-81